createdAt,value
2023-04-23T00:02:51.114Z,1.23
2023-04-23T00:17:52.877Z,1.40
2023-04-23T00:32:54.818Z,1.40
2023-04-23T00:47:56.919Z,1.43
2023-04-23T01:02:59.230Z,1.60
2023-04-23T01:18:01.097Z,1.53
2023-04-23T01:33:04.306Z,1.57
2023-04-23T01:48:06.222Z,1.40
2023-04-23T02:03:08.238Z,1.40
2023-04-23T02:18:10.091Z,1.70
2023-04-23T02:33:12.612Z,1.40
2023-04-23T02:48:14.387Z,1.50
2023-04-23T03:03:16.340Z,1.50
2023-04-23T03:18:18.379Z,1.50
2023-04-23T03:33:20.069Z,1.57
2023-04-23T03:48:21.746Z,1.67
2023-04-23T04:03:23.654Z,1.50
2023-04-23T04:18:25.524Z,1.40
2023-04-23T04:33:27.262Z,1.50
2023-04-23T04:48:29.071Z,1.50
2023-04-23T05:03:31.110Z,1.70
2023-04-23T05:18:33.349Z,1.27
2023-04-23T05:33:42.846Z,1.47
2023-04-23T05:48:51.254Z,1.70
2023-04-23T06:03:53.075Z,2.03
2023-04-23T06:18:55.224Z,1.63
2023-04-23T06:33:56.837Z,2.50
2023-04-23T06:48:58.601Z,2.00
2023-04-23T07:04:00.431Z,2.37
2023-04-23T07:19:02.165Z,2.20
2023-04-23T07:34:04.019Z,1.90
2023-04-23T07:49:05.696Z,2.20
2023-04-23T08:04:07.706Z,2.00
2023-04-23T08:19:09.620Z,2.20
2023-04-23T08:34:11.359Z,2.00
2023-04-23T08:49:15.780Z,3.80
2023-04-23T09:04:17.624Z,3.17
2023-04-23T09:19:19.893Z,3.00
2023-04-23T09:34:25.517Z,2.80
2023-04-23T09:49:27.152Z,3.03
2023-04-23T10:04:29.111Z,2.87
2023-04-23T10:19:32.648Z,2.83
2023-04-23T10:34:34.351Z,2.47
2023-04-23T10:49:38.943Z,2.90
2023-04-23T11:04:53.972Z,2.40
2023-04-23T11:20:04.560Z,2.30
2023-04-23T11:35:07.332Z,2.47
2023-04-23T11:50:09.602Z,2.43
2023-04-23T12:05:11.587Z,2.27
2023-04-23T12:20:18.254Z,2.37
2023-04-23T12:35:20.006Z,2.30
2023-04-23T12:50:21.801Z,2.10
2023-04-23T13:05:24.323Z,2.10
2023-04-23T13:20:26.035Z,1.90
2023-04-23T13:35:27.946Z,2.20
2023-04-23T13:50:29.645Z,1.90
2023-04-23T14:05:31.536Z,2.07
2023-04-23T14:20:33.245Z,2.00
2023-04-23T14:35:43.164Z,2.00
2023-04-23T14:50:46.015Z,2.17
2023-04-23T15:05:47.686Z,1.67
2023-04-23T15:20:49.474Z,1.90
2023-04-23T15:35:51.191Z,2.10
2023-04-23T15:50:53.254Z,1.90
2023-04-23T16:05:54.949Z,1.80
2023-04-23T16:20:56.968Z,1.80
2023-04-23T16:35:58.759Z,1.90
2023-04-23T16:51:00.438Z,1.80
2023-04-23T17:06:29.403Z,1.60
2023-04-23T17:21:31.114Z,2.03
2023-04-23T17:36:32.826Z,1.57
2023-04-23T17:51:34.678Z,1.70
2023-04-23T18:06:36.516Z,1.80
2023-04-23T18:21:38.599Z,1.77
2023-04-23T18:36:42.912Z,1.60
2023-04-23T18:51:50.300Z,1.80
2023-04-23T19:06:52.198Z,1.70
2023-04-23T19:21:54.417Z,1.70
2023-04-23T19:36:56.426Z,1.40
2023-04-23T19:51:59.138Z,1.50
2023-04-23T20:07:00.822Z,1.60
2023-04-23T20:22:02.673Z,1.60
2023-04-23T20:37:04.653Z,1.60
2023-04-23T20:52:07.064Z,1.60
2023-04-23T21:07:08.750Z,1.43
2023-04-23T21:22:10.402Z,1.60
2023-04-23T21:37:12.085Z,1.53
2023-04-23T21:52:14.108Z,1.23
2023-04-23T22:07:16.340Z,1.30
2023-04-23T22:22:18.354Z,1.60
2023-04-23T22:37:20.864Z,1.40
2023-04-23T22:52:22.696Z,1.30
2023-04-23T23:07:24.671Z,1.40
2023-04-23T23:22:26.601Z,1.20
2023-04-23T23:37:28.725Z,1.30
2023-04-23T23:52:30.628Z,1.30
